sensor_id;sensor_type;location;lat;lon;timestamp;P1;durP1;ratioP1;P2;durP2;ratioP2
28070;SDS011;15383;48.408;9.968;2022-08-20T00:00:24;19.13;;;12.52;;
28070;SDS011;15383;48.408;9.968;2022-08-20T00:02:56;18.02;;;12.73;;
28070;SDS011;15383;48.408;9.968;2022-08-20T00:05:27;17.88;;;11.80;;
28070;SDS011;15383;48.408;9.968;2022-08-20T00:07:54;14.68;;;10.80;;
28070;SDS011;15383;48.408;9.968;2022-08-20T00:10:20;13.45;;;9.57;;
28070;SDS011;15383;48.408;9.968;2022-08-20T00:12:48;16.90;;;9.05;;
28070;SDS011;15383;48.408;9.968;2022-08-20T00:15:15;11.10;;;7.43;;
28070;SDS011;15383;48.408;9.968;2022-08-20T00:17:46;9.60;;;7.20;;
28070;SDS011;15383;48.408;9.968;2022-08-20T00:20:15;8.95;;;6.60;;
28070;SDS011;15383;48.408;9.968;2022-08-20T00:22:42;10.55;;;7.25;;
28070;SDS011;15383;48.408;9.968;2022-08-20T00:25:08;12.73;;;7.68;;
28070;SDS011;15383;48.408;9.968;2022-08-20T00:27:35;11.95;;;7.15;;
28070;SDS011;15383;48.408;9.968;2022-08-20T00:30:01;9.95;;;5.93;;
28070;SDS011;15383;48.408;9.968;2022-08-20T00:32:29;10.10;;;5.70;;
28070;SDS011;15383;48.408;9.968;2022-08-20T00:34:55;7.63;;;5.43;;
28070;SDS011;15383;48.408;9.968;2022-08-20T00:37:21;7.70;;;5.50;;
28070;SDS011;15383;48.408;9.968;2022-08-20T00:39:46;10.13;;;5.70;;
28070;SDS011;15383;48.408;9.968;2022-08-20T00:42:12;9.07;;;5.68;;
28070;SDS011;15383;48.408;9.968;2022-08-20T00:44:43;7.63;;;5.28;;
28070;SDS011;15383;48.408;9.968;2022-08-20T00:47:10;10.48;;;5.20;;
28070;SDS011;15383;48.408;9.968;2022-08-20T00:49:35;7.05;;;5.22;;
28070;SDS011;15383;48.408;9.968;2022-08-20T02:49:42;3.50;;;2.45;;
28070;SDS011;15383;48.408;9.968;2022-08-20T02:52:34;2.80;;;2.40;;
28070;SDS011;15383;48.408;9.968;2022-08-20T02:56:18;3.97;;;2.20;;
28070;SDS011;15383;48.408;9.968;2022-08-20T03:02:56;7.53;;;2.03;;
28070;SDS011;15383;48.408;9.968;2022-08-20T05:14:48;4.72;;;2.80;;
28070;SDS011;15383;48.408;9.968;2022-08-20T05:58:48;10.80;;;3.08;;
28070;SDS011;15383;48.408;9.968;2022-08-20T07:52:20;4.47;;;2.95;;
28070;SDS011;15383;48.408;9.968;2022-08-20T07:54:45;9.00;;;3.47;;
28070;SDS011;15383;48.408;9.968;2022-08-20T07:57:16;4.63;;;3.17;;
28070;SDS011;15383;48.408;9.968;2022-08-20T07:59:42;5.07;;;3.00;;
28070;SDS011;15383;48.408;9.968;2022-08-20T08:02:10;5.88;;;3.05;;
28070;SDS011;15383;48.408;9.968;2022-08-20T08:04:36;3.08;;;2.72;;
28070;SDS011;15383;48.408;9.968;2022-08-20T08:07:02;4.88;;;2.95;;
28070;SDS011;15383;48.408;9.968;2022-08-20T08:09:28;6.07;;;3.05;;
28070;SDS011;15383;48.408;9.968;2022-08-20T08:11:55;5.05;;;2.90;;
28070;SDS011;15383;48.408;9.968;2022-08-20T08:14:24;3.28;;;2.28;;
28070;SDS011;15383;48.408;9.968;2022-08-20T08:19:21;4.03;;;2.40;;
28070;SDS011;15383;48.408;9.968;2022-08-20T08:21:48;3.22;;;2.50;;
28070;SDS011;15383;48.408;9.968;2022-08-20T08:24:14;2.95;;;2.65;;
28070;SDS011;15383;48.408;9.968;2022-08-20T08:26:42;4.40;;;2.85;;
28070;SDS011;15383;48.408;9.968;2022-08-20T08:32:29;5.38;;;2.70;;
28070;SDS011;15383;48.408;9.968;2022-08-20T08:34:56;4.25;;;3.13;;
28070;SDS011;15383;48.408;9.968;2022-08-20T08:37:22;6.30;;;3.38;;
28070;SDS011;15383;48.408;9.968;2022-08-20T08:39:48;3.63;;;3.08;;
28070;SDS011;15383;48.408;9.968;2022-08-20T08:42:19;5.07;;;3.42;;
28070;SDS011;15383;48.408;9.968;2022-08-20T08:44:52;4.88;;;3.08;;
28070;SDS011;15383;48.408;9.968;2022-08-20T08:47:29;5.38;;;2.97;;
28070;SDS011;15383;48.408;9.968;2022-08-20T08:49:59;2.97;;;2.67;;
28070;SDS011;15383;48.408;9.968;2022-08-20T08:52:27;3.50;;;2.65;;
28070;SDS011;15383;48.408;9.968;2022-08-20T08:54:57;4.40;;;2.63;;
28070;SDS011;15383;48.408;9.968;2022-08-20T08:57:28;3.70;;;2.65;;
28070;SDS011;15383;48.408;9.968;2022-08-20T08:59:58;3.60;;;2.83;;
28070;SDS011;15383;48.408;9.968;2022-08-20T09:02:40;5.15;;;2.47;;
28070;SDS011;15383;48.408;9.968;2022-08-20T09:05:39;5.70;;;3.28;;
28070;SDS011;15383;48.408;9.968;2022-08-20T09:08:11;6.95;;;2.60;;
28070;SDS011;15383;48.408;9.968;2022-08-20T09:10:39;2.28;;;2.10;;
28070;SDS011;15383;48.408;9.968;2022-08-20T09:13:07;6.05;;;2.33;;
28070;SDS011;15383;48.408;9.968;2022-08-20T09:15:33;3.58;;;2.20;;
28070;SDS011;15383;48.408;9.968;2022-08-20T09:17:58;3.00;;;2.40;;
28070;SDS011;15383;48.408;9.968;2022-08-20T09:20:24;2.20;;;2.00;;
28070;SDS011;15383;48.408;9.968;2022-08-20T09:22:50;2.28;;;2.08;;
28070;SDS011;15383;48.408;9.968;2022-08-20T09:25:16;3.58;;;2.22;;
28070;SDS011;15383;48.408;9.968;2022-08-20T09:27:42;2.45;;;1.98;;
28070;SDS011;15383;48.408;9.968;2022-08-20T09:30:09;3.38;;;2.10;;
28070;SDS011;15383;48.408;9.968;2022-08-20T09:32:37;6.72;;;2.45;;
28070;SDS011;15383;48.408;9.968;2022-08-20T09:35:06;2.10;;;1.92;;
28070;SDS011;15383;48.408;9.968;2022-08-20T09:37:35;3.60;;;2.42;;
28070;SDS011;15383;48.408;9.968;2022-08-20T09:55:50;2.63;;;2.10;;
28070;SDS011;15383;48.408;9.968;2022-08-20T09:58:22;2.30;;;2.05;;
28070;SDS011;15383;48.408;9.968;2022-08-20T10:00:51;2.35;;;1.85;;
28070;SDS011;15383;48.408;9.968;2022-08-20T10:03:17;2.05;;;1.88;;
28070;SDS011;15383;48.408;9.968;2022-08-20T10:05:43;2.38;;;2.03;;
28070;SDS011;15383;48.408;9.968;2022-08-20T10:08:09;3.47;;;2.10;;
28070;SDS011;15383;48.408;9.968;2022-08-20T10:10:36;2.75;;;2.05;;
28070;SDS011;15383;48.408;9.968;2022-08-20T10:13:02;2.28;;;1.85;;
28070;SDS011;15383;48.408;9.968;2022-08-20T10:15:28;2.75;;;2.38;;
28070;SDS011;15383;48.408;9.968;2022-08-20T10:17:57;2.72;;;1.90;;
28070;SDS011;15383;48.408;9.968;2022-08-20T10:20:29;2.83;;;1.92;;
28070;SDS011;15383;48.408;9.968;2022-08-20T10:22:54;4.85;;;2.55;;
28070;SDS011;15383;48.408;9.968;2022-08-20T10:25:20;3.75;;;2.35;;
28070;SDS011;15383;48.408;9.968;2022-08-20T10:27:46;2.88;;;2.13;;
28070;SDS011;15383;48.408;9.968;2022-08-20T10:30:11;4.00;;;2.45;;
28070;SDS011;15383;48.408;9.968;2022-08-20T10:32:37;5.60;;;2.28;;
28070;SDS011;15383;48.408;9.968;2022-08-20T10:35:03;4.15;;;2.28;;
28070;SDS011;15383;48.408;9.968;2022-08-20T10:37:29;4.25;;;2.45;;
28070;SDS011;15383;48.408;9.968;2022-08-20T10:39:55;3.28;;;2.20;;
28070;SDS011;15383;48.408;9.968;2022-08-20T10:42:21;4.65;;;3.08;;
28070;SDS011;15383;48.408;9.968;2022-08-20T10:44:47;4.25;;;2.60;;
28070;SDS011;15383;48.408;9.968;2022-08-20T10:47:13;7.07;;;2.50;;
28070;SDS011;15383;48.408;9.968;2022-08-20T10:49:45;2.20;;;1.85;;
28070;SDS011;15383;48.408;9.968;2022-08-20T10:52:11;4.55;;;1.80;;
28070;SDS011;15383;48.408;9.968;2022-08-20T10:54:37;6.07;;;2.08;;
28070;SDS011;15383;48.408;9.968;2022-08-20T10:57:06;2.10;;;1.90;;
28070;SDS011;15383;48.408;9.968;2022-08-20T10:59:36;2.65;;;2.25;;
28070;SDS011;15383;48.408;9.968;2022-08-20T11:02:06;6.07;;;2.33;;
28070;SDS011;15383;48.408;9.968;2022-08-20T11:04:32;3.00;;;2.05;;
28070;SDS011;15383;48.408;9.968;2022-08-20T11:06:57;3.60;;;2.13;;
28070;SDS011;15383;48.408;9.968;2022-08-20T11:09:33;2.53;;;2.03;;
28070;SDS011;15383;48.408;9.968;2022-08-20T11:11:58;6.15;;;1.80;;
28070;SDS011;15383;48.408;9.968;2022-08-20T11:14:24;2.50;;;1.90;;
28070;SDS011;15383;48.408;9.968;2022-08-20T11:16:52;2.83;;;2.10;;
28070;SDS011;15383;48.408;9.968;2022-08-20T11:19:18;3.42;;;2.08;;
28070;SDS011;15383;48.408;9.968;2022-08-20T11:21:43;2.95;;;2.35;;
28070;SDS011;15383;48.408;9.968;2022-08-20T11:24:12;3.88;;;3.00;;
28070;SDS011;15383;48.408;9.968;2022-08-20T12:07:51;3.47;;;2.55;;
28070;SDS011;15383;48.408;9.968;2022-08-20T12:10:16;2.90;;;2.45;;
28070;SDS011;15383;48.408;9.968;2022-08-20T12:12:42;4.00;;;2.78;;
28070;SDS011;15383;48.408;9.968;2022-08-20T12:15:08;5.32;;;3.40;;
28070;SDS011;15383;48.408;9.968;2022-08-20T12:17:35;3.22;;;2.78;;
28070;SDS011;15383;48.408;9.968;2022-08-20T12:26:50;8.30;;;3.13;;
28070;SDS011;15383;48.408;9.968;2022-08-20T12:29:21;5.80;;;1.88;;
28070;SDS011;15383;48.408;9.968;2022-08-20T12:31:46;13.43;;;2.58;;
28070;SDS011;15383;48.408;9.968;2022-08-20T12:34:12;10.25;;;2.30;;
28070;SDS011;15383;48.408;9.968;2022-08-20T12:36:37;3.67;;;1.60;;
28070;SDS011;15383;48.408;9.968;2022-08-20T12:39:06;3.05;;;1.83;;
28070;SDS011;15383;48.408;9.968;2022-08-20T14:08:41;1.70;;;1.30;;
28070;SDS011;15383;48.408;9.968;2022-08-20T14:11:06;2.35;;;1.20;;
28070;SDS011;15383;48.408;9.968;2022-08-20T14:13:32;1.50;;;1.17;;
28070;SDS011;15383;48.408;9.968;2022-08-20T14:15:58;1.52;;;1.00;;
28070;SDS011;15383;48.408;9.968;2022-08-20T14:18:23;1.48;;;1.20;;
28070;SDS011;15383;48.408;9.968;2022-08-20T14:20:49;1.45;;;0.93;;
28070;SDS011;15383;48.408;9.968;2022-08-20T14:23:15;1.48;;;1.00;;
28070;SDS011;15383;48.408;9.968;2022-08-20T14:25:42;1.70;;;1.20;;
28070;SDS011;15383;48.408;9.968;2022-08-20T14:28:20;3.30;;;1.10;;
28070;SDS011;15383;48.408;9.968;2022-08-20T14:30:48;2.40;;;1.13;;
28070;SDS011;15383;48.408;9.968;2022-08-20T14:33:14;3.08;;;1.00;;
28070;SDS011;15383;48.408;9.968;2022-08-20T14:35:39;1.13;;;1.00;;
28070;SDS011;15383;48.408;9.968;2022-08-20T14:38:05;2.47;;;1.33;;
28070;SDS011;15383;48.408;9.968;2022-08-20T14:40:32;1.98;;;1.50;;
28070;SDS011;15383;48.408;9.968;2022-08-20T14:42:58;2.67;;;0.98;;
28070;SDS011;15383;48.408;9.968;2022-08-20T14:45:23;1.73;;;1.05;;
28070;SDS011;15383;48.408;9.968;2022-08-20T14:47:50;2.50;;;1.10;;
28070;SDS011;15383;48.408;9.968;2022-08-20T14:50:22;1.58;;;1.00;;
28070;SDS011;15383;48.408;9.968;2022-08-20T14:52:50;1.25;;;0.80;;
28070;SDS011;15383;48.408;9.968;2022-08-20T14:55:17;2.17;;;1.00;;
28070;SDS011;15383;48.408;9.968;2022-08-20T14:57:45;1.08;;;0.90;;
28070;SDS011;15383;48.408;9.968;2022-08-20T15:00:15;1.58;;;1.13;;
28070;SDS011;15383;48.408;9.968;2022-08-20T15:02:44;1.73;;;0.80;;
28070;SDS011;15383;48.408;9.968;2022-08-20T15:05:10;1.10;;;1.00;;
28070;SDS011;15383;48.408;9.968;2022-08-20T15:07:38;1.15;;;0.90;;
28070;SDS011;15383;48.408;9.968;2022-08-20T15:10:07;2.90;;;0.80;;
28070;SDS011;15383;48.408;9.968;2022-08-20T15:12:38;0.98;;;0.90;;
28070;SDS011;15383;48.408;9.968;2022-08-20T15:15:05;4.10;;;1.02;;
28070;SDS011;15383;48.408;9.968;2022-08-20T15:17:32;1.67;;;0.90;;
28070;SDS011;15383;48.408;9.968;2022-08-20T15:20:00;0.95;;;0.85;;
28070;SDS011;15383;48.408;9.968;2022-08-20T15:22:33;1.95;;;1.00;;
28070;SDS011;15383;48.408;9.968;2022-08-20T15:24:59;1.55;;;0.90;;
28070;SDS011;15383;48.408;9.968;2022-08-20T15:27:26;1.33;;;0.90;;
28070;SDS011;15383;48.408;9.968;2022-08-20T15:29:52;5.35;;;0.90;;
28070;SDS011;15383;48.408;9.968;2022-08-20T15:35:39;7.47;;;0.77;;
28070;SDS011;15383;48.408;9.968;2022-08-20T15:38:05;0.73;;;0.73;;
28070;SDS011;15383;48.408;9.968;2022-08-20T15:40:31;1.13;;;0.70;;
28070;SDS011;15383;48.408;9.968;2022-08-20T15:42:57;0.80;;;0.80;;
28070;SDS011;15383;48.408;9.968;2022-08-20T15:45:25;1.15;;;1.05;;
28070;SDS011;15383;48.408;9.968;2022-08-20T15:47:52;1.30;;;0.82;;
28070;SDS011;15383;48.408;9.968;2022-08-20T15:50:43;1.08;;;1.08;;
28070;SDS011;15383;48.408;9.968;2022-08-20T15:56:02;4.72;;;1.02;;
28070;SDS011;15383;48.408;9.968;2022-08-20T15:58:38;1.15;;;1.00;;
28070;SDS011;15383;48.408;9.968;2022-08-20T16:01:22;1.13;;;1.02;;
28070;SDS011;15383;48.408;9.968;2022-08-20T16:06:45;3.08;;;1.20;;
28070;SDS011;15383;48.408;9.968;2022-08-20T16:14:37;1.20;;;1.10;;
28070;SDS011;15383;48.408;9.968;2022-08-20T16:17:06;1.55;;;1.10;;
28070;SDS011;15383;48.408;9.968;2022-08-20T16:22:26;2.00;;;1.50;;
28070;SDS011;15383;48.408;9.968;2022-08-20T16:24:54;3.35;;;2.22;;
28070;SDS011;15383;48.408;9.968;2022-08-20T16:30:05;1.45;;;1.35;;
28070;SDS011;15383;48.408;9.968;2022-08-20T16:32:37;1.27;;;1.10;;
28070;SDS011;15383;48.408;9.968;2022-08-20T16:37:54;1.63;;;1.52;;
28070;SDS011;15383;48.408;9.968;2022-08-20T16:40:27;1.67;;;1.13;;
28070;SDS011;15383;48.408;9.968;2022-08-20T16:43:01;0.80;;;0.80;;
28070;SDS011;15383;48.408;9.968;2022-08-20T16:48:01;1.00;;;0.98;;
28070;SDS011;15383;48.408;9.968;2022-08-20T16:53:17;1.27;;;1.17;;
28070;SDS011;15383;48.408;9.968;2022-08-20T16:55:45;1.35;;;1.10;;
28070;SDS011;15383;48.408;9.968;2022-08-20T16:58:11;1.65;;;1.55;;
28070;SDS011;15383;48.408;9.968;2022-08-20T17:00:36;1.13;;;1.02;;
28070;SDS011;15383;48.408;9.968;2022-08-20T17:03:07;1.33;;;1.15;;
28070;SDS011;15383;48.408;9.968;2022-08-20T17:05:54;1.30;;;1.20;;
28070;SDS011;15383;48.408;9.968;2022-08-20T17:13:30;2.60;;;1.30;;
28070;SDS011;15383;48.408;9.968;2022-08-20T17:18:39;1.98;;;1.25;;
28070;SDS011;15383;48.408;9.968;2022-08-20T17:21:23;1.40;;;1.30;;
28070;SDS011;15383;48.408;9.968;2022-08-20T17:24:08;2.27;;;1.60;;
28070;SDS011;15383;48.408;9.968;2022-08-20T17:26:35;2.08;;;1.30;;
28070;SDS011;15383;48.408;9.968;2022-08-20T17:29:12;1.42;;;1.30;;
28070;SDS011;15383;48.408;9.968;2022-08-20T17:31:44;2.85;;;1.08;;
28070;SDS011;15383;48.408;9.968;2022-08-20T17:36:58;1.77;;;1.50;;
28070;SDS011;15383;48.408;9.968;2022-08-20T17:39:52;2.63;;;1.35;;
28070;SDS011;15383;48.408;9.968;2022-08-20T17:42:21;1.33;;;1.13;;
28070;SDS011;15383;48.408;9.968;2022-08-20T17:44:51;2.10;;;1.10;;
28070;SDS011;15383;48.408;9.968;2022-08-20T17:47:21;1.88;;;0.93;;
28070;SDS011;15383;48.408;9.968;2022-08-20T17:49:55;1.67;;;1.00;;
28070;SDS011;15383;48.408;9.968;2022-08-20T17:52:29;1.30;;;1.17;;
28070;SDS011;15383;48.408;9.968;2022-08-20T17:54:58;4.07;;;1.08;;
28070;SDS011;15383;48.408;9.968;2022-08-20T17:57:27;1.35;;;1.25;;
28070;SDS011;15383;48.408;9.968;2022-08-20T18:00:01;1.15;;;1.05;;
28070;SDS011;15383;48.408;9.968;2022-08-20T18:02:31;4.72;;;1.13;;
28070;SDS011;15383;48.408;9.968;2022-08-20T18:04:58;2.53;;;1.17;;
28070;SDS011;15383;48.408;9.968;2022-08-20T18:07:25;1.65;;;1.20;;
28070;SDS011;15383;48.408;9.968;2022-08-20T18:10:11;2.45;;;1.10;;
28070;SDS011;15383;48.408;9.968;2022-08-20T18:12:59;1.63;;;1.25;;
28070;SDS011;15383;48.408;9.968;2022-08-20T18:15:31;3.33;;;1.45;;
28070;SDS011;15383;48.408;9.968;2022-08-20T18:23:50;2.00;;;1.50;;
28070;SDS011;15383;48.408;9.968;2022-08-20T18:26:31;2.58;;;1.40;;
28070;SDS011;15383;48.408;9.968;2022-08-20T18:29:13;1.83;;;1.30;;
28070;SDS011;15383;48.408;9.968;2022-08-20T18:31:48;4.18;;;1.50;;
28070;SDS011;15383;48.408;9.968;2022-08-20T18:34:17;1.48;;;1.38;;
28070;SDS011;15383;48.408;9.968;2022-08-20T18:36:58;3.30;;;1.67;;
28070;SDS011;15383;48.408;9.968;2022-08-20T18:42:02;5.15;;;1.50;;
28070;SDS011;15383;48.408;9.968;2022-08-20T18:44:36;2.40;;;1.60;;
28070;SDS011;15383;48.408;9.968;2022-08-20T18:47:05;1.77;;;1.50;;
28070;SDS011;15383;48.408;9.968;2022-08-20T18:49:43;5.45;;;1.77;;
28070;SDS011;15383;48.408;9.968;2022-08-20T20:31:12;3.22;;;1.70;;
28070;SDS011;15383;48.408;9.968;2022-08-20T22:39:40;2.92;;;1.10;;
28070;SDS011;15383;48.408;9.968;2022-08-20T22:42:05;1.40;;;1.17;;
28070;SDS011;15383;48.408;9.968;2022-08-20T22:44:31;2.90;;;1.27;;
28070;SDS011;15383;48.408;9.968;2022-08-20T22:46:58;2.10;;;1.48;;
28070;SDS011;15383;48.408;9.968;2022-08-20T22:49:27;1.55;;;1.40;;
28070;SDS011;15383;48.408;9.968;2022-08-20T22:51:55;2.47;;;1.20;;
28070;SDS011;15383;48.408;9.968;2022-08-20T22:54:21;2.20;;;1.40;;
28070;SDS011;15383;48.408;9.968;2022-08-20T22:56:48;1.40;;;1.30;;
28070;SDS011;15383;48.408;9.968;2022-08-20T22:59:14;3.40;;;1.20;;
28070;SDS011;15383;48.408;9.968;2022-08-20T23:01:40;1.48;;;1.38;;
28070;SDS011;15383;48.408;9.968;2022-08-20T23:04:28;2.35;;;1.40;;
28070;SDS011;15383;48.408;9.968;2022-08-20T23:06:57;2.03;;;1.38;;
28070;SDS011;15383;48.408;9.968;2022-08-20T23:09:23;2.70;;;1.58;;
28070;SDS011;15383;48.408;9.968;2022-08-20T23:11:50;5.10;;;1.50;;
28070;SDS011;15383;48.408;9.968;2022-08-20T23:14:15;2.42;;;1.58;;
28070;SDS011;15383;48.408;9.968;2022-08-20T23:16:43;1.52;;;1.38;;
28070;SDS011;15383;48.408;9.968;2022-08-20T23:19:12;2.38;;;1.63;;
28070;SDS011;15383;48.408;9.968;2022-08-20T23:21:42;1.30;;;1.20;;
28070;SDS011;15383;48.408;9.968;2022-08-20T23:24:08;6.95;;;1.50;;
28070;SDS011;15383;48.408;9.968;2022-08-20T23:26:33;1.63;;;1.52;;
28070;SDS011;15383;48.408;9.968;2022-08-20T23:28:59;4.75;;;1.40;;
28070;SDS011;15383;48.408;9.968;2022-08-20T23:31:25;2.50;;;1.70;;
28070;SDS011;15383;48.408;9.968;2022-08-20T23:33:50;3.42;;;1.48;;
28070;SDS011;15383;48.408;9.968;2022-08-20T23:36:16;3.22;;;1.58;;
28070;SDS011;15383;48.408;9.968;2022-08-20T23:38:44;1.85;;;1.50;;
28070;SDS011;15383;48.408;9.968;2022-08-20T23:41:10;6.38;;;1.52;;
28070;SDS011;15383;48.408;9.968;2022-08-20T23:43:36;3.17;;;1.60;;
28070;SDS011;15383;48.408;9.968;2022-08-20T23:46:03;2.88;;;1.90;;
28070;SDS011;15383;48.408;9.968;2022-08-20T23:48:30;2.13;;;1.80;;
28070;SDS011;15383;48.408;9.968;2022-08-20T23:50:56;3.88;;;1.60;;
28070;SDS011;15383;48.408;9.968;2022-08-20T23:53:22;1.45;;;1.35;;
28070;SDS011;15383;48.408;9.968;2022-08-20T23:55:47;2.00;;;1.40;;
28070;SDS011;15383;48.408;9.968;2022-08-20T23:58:13;6.05;;;1.48;;
